createdAt,value
2018-02-23T00:00:20.205Z,923.09
2018-02-23T00:00:48.263Z,923.2
2018-02-23T00:01:16.298Z,923.15
2018-02-23T00:01:44.494Z,923.21
2018-02-23T00:02:12.616Z,923.25
2018-02-23T00:02:40.706Z,923.22
2018-02-23T00:03:08.991Z,923.21
2018-02-23T00:03:37.123Z,923.21
2018-02-23T00:04:05.358Z,923.27
2018-02-23T00:04:33.565Z,923.27
2018-02-23T00:05:01.659Z,923.3
2018-02-23T00:06:12.915Z,923.3
2018-02-23T00:06:41.175Z,923.28
2018-02-23T00:07:09.404Z,923.34
2018-02-23T00:07:37.297Z,923.3
2018-02-23T00:08:05.424Z,923.28
2018-02-23T00:08:33.500Z,923.29
2018-02-23T00:09:01.794Z,923.32
2018-02-23T00:09:29.810Z,923.32
2018-02-23T00:09:58.034Z,923.31
2018-02-23T00:10:26.047Z,923.3
2018-02-23T00:10:54.141Z,923.3
2018-02-23T00:12:05.328Z,923.32
2018-02-23T00:12:33.484Z,923.37
2018-02-23T00:13:01.716Z,923.39
2018-02-23T00:13:29.901Z,923.36
2018-02-23T00:13:58.135Z,923.4
2018-02-23T00:14:26.310Z,923.43
2018-02-23T00:14:54.607Z,923.43
2018-02-23T00:15:22.826Z,923.43
2018-02-23T00:15:51.042Z,923.45
2018-02-23T00:16:19.254Z,923.45
2018-02-23T00:16:47.549Z,923.44
2018-02-23T00:17:58.834Z,923.41
2018-02-23T00:18:27.102Z,923.46
2018-02-23T00:18:55.339Z,923.5
2018-02-23T00:19:23.329Z,923.45
2018-02-23T00:19:51.467Z,923.43
2018-02-23T00:20:19.643Z,923.48
2018-02-23T00:20:47.832Z,923.5
2018-02-23T00:21:15.949Z,923.47
2018-02-23T00:21:44.067Z,923.48
2018-02-23T00:22:12.282Z,923.48
2018-02-23T00:22:40.376Z,923.48
2018-02-23T00:23:51.460Z,923.47
2018-02-23T00:24:19.728Z,923.55
2018-02-23T00:24:47.866Z,923.5
2018-02-23T00:25:15.852Z,923.51
2018-02-23T00:25:43.889Z,923.51
2018-02-23T00:26:12.180Z,923.57
2018-02-23T00:26:40.265Z,923.53
2018-02-23T00:27:08.188Z,923.55
2018-02-23T00:27:36.407Z,923.57
2018-02-23T00:28:04.524Z,923.57
2018-02-23T00:28:32.715Z,923.55
2018-02-23T00:29:43.904Z,923.56
2018-02-23T00:30:12.072Z,923.57
2018-02-23T00:30:40.116Z,923.51
2018-02-23T00:31:08.345Z,923.56
2018-02-23T00:31:36.682Z,923.53
2018-02-23T00:32:04.960Z,923.55
2018-02-23T00:32:33.256Z,923.56
2018-02-23T00:33:01.380Z,923.56
2018-02-23T00:33:29.698Z,923.53
2018-02-23T00:33:58.014Z,923.57
2018-02-23T00:34:26.312Z,923.58
2018-02-23T00:35:37.498Z,923.59
2018-02-23T00:36:05.667Z,923.59
2018-02-23T00:36:33.911Z,923.61
2018-02-23T00:37:02.102Z,923.62
2018-02-23T00:37:30.333Z,923.61
2018-02-23T00:37:58.605Z,923.6
2018-02-23T00:38:26.905Z,923.63
2018-02-23T00:38:55.125Z,923.62
2018-02-23T00:39:23.340Z,923.66
2018-02-23T00:39:51.656Z,923.68
2018-02-23T00:40:19.848Z,923.66
2018-02-23T00:41:31.034Z,923.65
2018-02-23T00:41:59.098Z,923.61
2018-02-23T00:42:27.136Z,923.67
2018-02-23T00:42:55.326Z,923.66
2018-02-23T00:43:23.362Z,923.63
2018-02-23T00:43:51.528Z,923.65
2018-02-23T00:44:19.822Z,923.69
2018-02-23T00:44:47.849Z,923.63
2018-02-23T00:45:16.070Z,923.67
2018-02-23T00:45:44.389Z,923.6
2018-02-23T00:46:12.678Z,923.61
2018-02-23T00:47:23.861Z,923.62
2018-02-23T00:47:51.826Z,923.6
2018-02-23T00:48:20.060Z,923.59
2018-02-23T00:48:48.255Z,923.59
2018-02-23T00:49:16.290Z,923.61
2018-02-23T00:49:44.565Z,923.61
2018-02-23T00:50:12.863Z,923.62
2018-02-23T00:50:40.985Z,923.64
2018-02-23T00:51:09.306Z,923.61
2018-02-23T00:51:37.624Z,923.61
2018-02-23T00:52:05.815Z,923.64
2018-02-23T00:53:16.898Z,923.63
2018-02-23T00:53:45.062Z,923.62
2018-02-23T00:54:13.196Z,923.7
2018-02-23T00:54:41.385Z,923.69
2018-02-23T00:55:09.414Z,923.64
2018-02-23T00:55:37.387Z,923.68
2018-02-23T00:56:05.686Z,923.66
2018-02-23T00:56:33.961Z,923.68
2018-02-23T00:57:02.176Z,923.63
2018-02-23T00:57:30.390Z,923.67
2018-02-23T00:57:58.686Z,923.63
2018-02-23T00:59:09.874Z,923.63
2018-02-23T00:59:38.141Z,923.63
2018-02-23T01:00:06.380Z,923.63
2018-02-23T01:00:34.570Z,923.62
2018-02-23T01:01:02.804Z,923.64
2018-02-23T01:01:30.984Z,923.63
2018-02-23T01:01:59.175Z,923.61
2018-02-23T01:02:27.293Z,923.59
2018-02-23T01:02:55.407Z,923.65
2018-02-23T01:03:23.521Z,923.65
2018-02-23T01:03:51.815Z,923.64
2018-02-23T01:05:02.998Z,923.63
2018-02-23T01:05:31.257Z,923.63
2018-02-23T01:05:59.394Z,923.65
2018-02-23T01:06:27.487Z,923.64
2018-02-23T01:06:55.715Z,923.61
2018-02-23T01:07:23.887Z,923.62
2018-02-23T01:07:52.184Z,923.62
2018-02-23T01:08:20.204Z,923.65
2018-02-23T01:08:48.118Z,923.57
2018-02-23T01:09:16.338Z,923.6
2018-02-23T01:09:44.629Z,923.58
2018-02-23T01:10:55.810Z,923.59
2018-02-23T01:11:23.872Z,923.56
2018-02-23T01:11:52.110Z,923.59
2018-02-23T01:12:20.101Z,923.57
2018-02-23T01:12:48.137Z,923.57
2018-02-23T01:13:16.406Z,923.55
2018-02-23T01:13:44.706Z,923.58
2018-02-23T01:14:12.925Z,923.58
2018-02-23T01:14:41.142Z,923.59
2018-02-23T01:15:09.358Z,923.62
2018-02-23T01:15:37.553Z,923.61
2018-02-23T01:16:48.636Z,923.64
2018-02-23T01:17:16.904Z,923.62
2018-02-23T01:17:45.137Z,923.61
2018-02-23T01:18:13.330Z,923.6
2018-02-23T01:18:41.261Z,923.63
2018-02-23T01:19:09.536Z,923.65
2018-02-23T01:19:37.835Z,923.66
2018-02-23T01:20:05.956Z,923.63
2018-02-23T01:20:33.975Z,923.65
2018-02-23T01:21:02.194Z,923.63
2018-02-23T01:21:30.404Z,923.66
2018-02-23T01:22:41.570Z,923.67
2018-02-23T01:23:09.628Z,923.65
2018-02-23T01:23:37.870Z,923.6
2018-02-23T01:24:05.964Z,923.66
2018-02-23T01:24:33.894Z,923.64
2018-02-23T01:25:02.170Z,923.64
2018-02-23T01:25:30.365Z,923.62
2018-02-23T01:25:58.482Z,923.65
2018-02-23T01:26:26.698Z,923.66
2018-02-23T01:26:54.916Z,923.68
2018-02-23T01:27:23.115Z,923.65
2018-02-23T01:28:34.403Z,923.69
2018-02-23T01:29:02.661Z,923.71
2018-02-23T01:29:30.798Z,923.68
2018-02-23T01:29:59.328Z,923.72
2018-02-23T01:30:27.456Z,923.7
2018-02-23T01:30:55.532Z,923.71
2018-02-23T01:31:23.830Z,923.75
2018-02-23T01:31:51.957Z,923.7
2018-02-23T01:32:34.745Z,923.76
2018-02-23T01:33:03.062Z,923.76
2018-02-23T01:33:31.159Z,923.75
2018-02-23T01:34:47.799Z,923.79
2018-02-23T01:35:15.960Z,923.74
2018-02-23T01:35:44.101Z,923.77
2018-02-23T01:36:12.290Z,923.74
2018-02-23T01:36:40.527Z,923.71
2018-02-23T01:37:08.801Z,923.73
2018-02-23T01:37:36.998Z,923.71
2018-02-23T01:38:05.216Z,923.67
2018-02-23T01:38:33.330Z,923.68
2018-02-23T01:39:01.548Z,923.71
2018-02-23T01:39:29.844Z,923.7
2018-02-23T01:40:41.120Z,923.67
2018-02-23T01:41:09.380Z,923.65
2018-02-23T01:41:37.618Z,923.69
2018-02-23T01:42:05.812Z,923.68
2018-02-23T01:42:33.876Z,923.65
2018-02-23T01:43:02.024Z,923.66
2018-02-23T01:43:30.320Z,923.66
2018-02-23T01:43:58.533Z,923.66
2018-02-23T01:44:26.754Z,923.67
2018-02-23T01:44:55.071Z,923.65
2018-02-23T01:45:23.365Z,923.66
2018-02-23T01:46:34.554Z,923.67
2018-02-23T01:47:02.815Z,923.69
2018-02-23T01:47:31.054Z,923.68
2018-02-23T01:47:59.244Z,923.67
2018-02-23T01:48:27.477Z,923.7
2018-02-23T01:48:55.753Z,923.69
2018-02-23T01:49:23.944Z,923.72
2018-02-23T01:49:51.966Z,923.69
2018-02-23T01:50:20.286Z,923.69
2018-02-23T01:50:48.503Z,923.71
2018-02-23T01:51:16.693Z,923.68
2018-02-23T01:52:27.781Z,923.7
2018-02-23T01:52:56.043Z,923.73
2018-02-23T01:53:24.276Z,923.72
2018-02-23T01:53:52.474Z,923.71
2018-02-23T01:54:20.405Z,923.72
2018-02-23T01:54:48.633Z,923.65
2018-02-23T01:55:16.771Z,923.68
2018-02-23T01:55:44.887Z,923.7
2018-02-23T01:56:13.000Z,923.69
2018-02-23T01:56:41.218Z,923.68
2018-02-23T01:57:09.412Z,923.65
2018-02-23T01:58:20.697Z,923.66
2018-02-23T01:58:48.753Z,923.67
2018-02-23T01:59:16.890Z,923.65
2018-02-23T01:59:44.978Z,923.67
2018-02-23T02:00:13.107Z,923.71
2018-02-23T02:00:41.283Z,923.71
2018-02-23T02:01:09.374Z,923.71
2018-02-23T02:01:37.297Z,923.68
2018-02-23T02:02:05.514Z,923.68
2018-02-23T02:02:33.730Z,923.7
2018-02-23T02:03:02.025Z,923.7
2018-02-23T02:04:13.212Z,923.68
2018-02-23T02:04:41.477Z,923.69
2018-02-23T02:05:09.614Z,923.68
2018-02-23T02:05:37.629Z,923.69
2018-02-23T02:06:05.643Z,923.71
2018-02-23T02:06:33.817Z,923.7
2018-02-23T02:07:02.009Z,923.71
2018-02-23T02:07:30.034Z,923.7
2018-02-23T02:07:58.349Z,923.74
2018-02-23T02:08:26.558Z,923.73
2018-02-23T02:08:54.558Z,923.72
2018-02-23T02:10:05.744Z,923.73
2018-02-23T02:10:33.907Z,923.73
2018-02-23T02:11:02.139Z,923.75
2018-02-23T02:11:30.131Z,923.76
2018-02-23T02:11:58.358Z,923.7
2018-02-23T02:12:26.641Z,923.73
2018-02-23T02:12:54.940Z,923.74
2018-02-23T02:13:23.158Z,923.75
2018-02-23T02:13:51.477Z,923.73
2018-02-23T02:14:19.691Z,923.76
2018-02-23T02:14:47.989Z,923.76
2018-02-23T02:15:59.177Z,923.79
2018-02-23T02:16:27.236Z,923.77
2018-02-23T02:16:55.368Z,923.78
2018-02-23T02:17:23.566Z,923.75
2018-02-23T02:17:51.495Z,923.8
2018-02-23T02:18:19.577Z,923.79
2018-02-23T02:18:47.873Z,923.75
2018-02-23T02:19:16.097Z,923.77
2018-02-23T02:19:44.216Z,923.71
2018-02-23T02:20:12.531Z,923.72
2018-02-23T02:20:40.821Z,923.72
2018-02-23T02:21:52.004Z,923.74
2018-02-23T02:22:20.264Z,923.72
2018-02-23T02:22:48.504Z,923.73
2018-02-23T02:23:16.696Z,923.71
2018-02-23T02:23:44.826Z,923.69
2018-02-23T02:24:13.005Z,923.71
2018-02-23T02:24:41.304Z,923.68
2018-02-23T02:25:09.525Z,923.7
2018-02-23T02:25:37.740Z,923.72
2018-02-23T02:26:06.060Z,923.68
2018-02-23T02:26:34.157Z,923.7
2018-02-23T02:27:45.445Z,923.72
2018-02-23T02:28:13.604Z,923.73
2018-02-23T02:28:41.835Z,923.75
2018-02-23T02:29:09.829Z,923.74
2018-02-23T02:29:37.963Z,923.78
2018-02-23T02:30:06.250Z,923.81
2018-02-23T02:30:34.447Z,923.8
2018-02-23T02:31:02.568Z,923.74
2018-02-23T02:31:30.784Z,923.78
2018-02-23T02:31:59.001Z,923.78
2018-02-23T02:32:27.097Z,923.78
2018-02-23T02:33:38.182Z,923.8
2018-02-23T02:34:06.345Z,923.79
2018-02-23T02:34:34.477Z,923.76
2018-02-23T02:35:02.670Z,923.75
2018-02-23T02:35:30.802Z,923.74
2018-02-23T02:35:58.979Z,923.77
2018-02-23T02:36:27.073Z,923.76
2018-02-23T02:36:55.296Z,923.75
2018-02-23T02:37:23.517Z,923.77
2018-02-23T02:37:51.833Z,923.76
2018-02-23T02:38:20.127Z,923.72
2018-02-23T02:39:31.014Z,923.74
2018-02-23T02:39:59.180Z,923.7
2018-02-23T02:40:27.417Z,923.72
2018-02-23T02:40:55.405Z,923.73
2018-02-23T02:41:23.440Z,923.71
2018-02-23T02:41:51.717Z,923.7
2018-02-23T02:42:19.817Z,923.73
2018-02-23T02:42:47.838Z,923.8
2018-02-23T02:43:16.057Z,923.73
2018-02-23T02:43:44.175Z,923.66
2018-02-23T02:44:12.468Z,923.73
2018-02-23T02:45:23.662Z,923.68
2018-02-23T02:45:51.820Z,923.76
2018-02-23T02:46:20.059Z,923.75
2018-02-23T02:46:48.248Z,923.74
2018-02-23T02:47:16.275Z,923.73
2018-02-23T02:47:44.455Z,923.72
2018-02-23T02:48:12.754Z,923.72
2018-02-23T02:48:40.876Z,923.69
2018-02-23T02:49:09.194Z,923.72
2018-02-23T02:49:37.511Z,923.69
2018-02-23T02:50:05.707Z,923.68
2018-02-23T02:51:16.996Z,923.69
2018-02-23T02:51:45.264Z,923.66
2018-02-23T02:52:13.498Z,923.69
2018-02-23T02:52:41.686Z,923.64
2018-02-23T02:53:09.815Z,923.66
2018-02-23T02:53:38.096Z,923.64
2018-02-23T02:54:06.399Z,923.64
2018-02-23T02:54:34.616Z,923.64
2018-02-23T02:55:02.937Z,923.63
2018-02-23T02:55:31.252Z,923.6
2018-02-23T02:55:59.449Z,923.57
2018-02-23T02:57:10.729Z,923.6
2018-02-23T02:57:38.793Z,923.6
2018-02-23T02:58:06.935Z,923.61
2018-02-23T02:58:35.024Z,923.63
2018-02-23T02:59:03.052Z,923.61
2018-02-23T02:59:31.033Z,923.63
2018-02-23T02:59:59.128Z,923.66
2018-02-23T03:00:27.351Z,923.62
2018-02-23T03:00:55.665Z,923.64
2018-02-23T03:01:23.780Z,923.65
2018-02-23T03:01:52.075Z,923.6
2018-02-23T03:03:03.361Z,923.61
2018-02-23T03:03:31.432Z,923.6
2018-02-23T03:03:59.663Z,923.6
2018-02-23T03:04:27.762Z,923.61
2018-02-23T03:04:55.982Z,923.61
2018-02-23T03:05:24.064Z,923.57
2018-02-23T03:05:52.158Z,923.58
2018-02-23T03:06:20.376Z,923.55
2018-02-23T03:06:48.590Z,923.57
2018-02-23T03:07:16.808Z,923.55
2018-02-23T03:07:44.995Z,923.55
2018-02-23T03:08:56.277Z,923.58
2018-02-23T03:09:24.541Z,923.54
2018-02-23T03:09:52.675Z,923.57
2018-02-23T03:10:20.569Z,923.55
2018-02-23T03:10:48.800Z,923.54
2018-02-23T03:11:16.885Z,923.54
2018-02-23T03:11:44.975Z,923.52
2018-02-23T03:12:13.093Z,923.54
2018-02-23T03:12:41.312Z,923.58
2018-02-23T03:13:09.537Z,923.54
2018-02-23T03:13:37.629Z,923.52
2018-02-23T03:14:48.713Z,923.57
2018-02-23T03:15:16.774Z,923.54
2018-02-23T03:15:44.710Z,923.49
2018-02-23T03:16:12.704Z,923.53
2018-02-23T03:16:40.834Z,923.47
2018-02-23T03:17:08.913Z,923.44
2018-02-23T03:17:37.217Z,923.46
2018-02-23T03:18:05.242Z,923.43
2018-02-23T03:18:33.358Z,923.48
2018-02-23T03:19:01.376Z,923.45
2018-02-23T03:19:29.667Z,923.42
2018-02-23T03:20:40.851Z,923.44
2018-02-23T03:21:09.013Z,923.38
2018-02-23T03:21:37.240Z,923.36
2018-02-23T03:22:05.428Z,923.4
2018-02-23T03:22:33.558Z,923.51
2018-02-23T03:23:01.738Z,923.35
2018-02-23T03:23:29.934Z,923.41
2018-02-23T03:23:58.051Z,923.39
2018-02-23T03:24:26.168Z,923.37
2018-02-23T03:24:54.383Z,923.42
2018-02-23T03:25:22.574Z,923.43
2018-02-23T03:26:33.755Z,923.43
2018-02-23T03:27:01.920Z,923.44
2018-02-23T03:27:30.057Z,923.44
2018-02-23T03:27:58.150Z,923.46
2018-02-23T03:28:26.386Z,923.46
2018-02-23T03:28:54.660Z,923.48
2018-02-23T03:29:22.952Z,923.53
2018-02-23T03:29:50.871Z,923.55
2018-02-23T03:30:19.190Z,923.59
2018-02-23T03:30:47.421Z,923.52
2018-02-23T03:31:15.595Z,923.53
2018-02-23T03:32:26.878Z,923.56
2018-02-23T03:32:55.039Z,923.58
2018-02-23T03:33:23.177Z,923.59
2018-02-23T03:33:51.367Z,923.57
2018-02-23T03:34:19.396Z,923.51
2018-02-23T03:34:47.574Z,923.54
2018-02-23T03:35:15.663Z,923.53
2018-02-23T03:35:43.789Z,923.56
2018-02-23T03:36:12.005Z,923.59
2018-02-23T03:36:40.313Z,923.54
2018-02-23T03:37:08.304Z,923.57
2018-02-23T03:38:19.583Z,923.56
2018-02-23T03:38:47.754Z,923.58
2018-02-23T03:39:15.990Z,923.56
2018-02-23T03:39:44.184Z,923.56
2018-02-23T03:40:12.215Z,923.53
2018-02-23T03:40:40.491Z,923.51
2018-02-23T03:41:08.594Z,923.48
2018-02-23T03:41:36.709Z,923.49
2018-02-23T03:42:04.925Z,923.49
2018-02-23T03:42:33.034Z,923.47
2018-02-23T03:43:01.329Z,923.45
2018-02-23T03:44:12.410Z,923.46
2018-02-23T03:44:40.369Z,923.52
2018-02-23T03:45:08.404Z,923.51
2018-02-23T03:45:36.494Z,923.49
2018-02-23T03:46:04.523Z,923.49
2018-02-23T03:46:32.794Z,923.53
2018-02-23T03:47:01.090Z,923.54
2018-02-23T03:47:29.113Z,923.57
2018-02-23T03:47:57.228Z,923.57
2018-02-23T03:48:25.441Z,923.59
2018-02-23T03:48:53.437Z,923.56
2018-02-23T03:50:04.523Z,923.55
2018-02-23T03:50:32.582Z,923.6
2018-02-23T03:51:00.818Z,923.64
2018-02-23T03:51:28.811Z,923.62
2018-02-23T03:51:56.837Z,923.59
2018-02-23T03:52:25.014Z,923.59
2018-02-23T03:52:53.109Z,923.6
2018-02-23T03:53:21.131Z,923.59
2018-02-23T03:53:49.248Z,923.58
2018-02-23T03:54:17.464Z,923.56
2018-02-23T03:54:45.758Z,923.59
2018-02-23T03:55:56.839Z,923.51
2018-02-23T03:56:25.105Z,923.52
2018-02-23T03:56:53.241Z,923.5
2018-02-23T03:57:21.429Z,923.49
2018-02-23T03:57:49.362Z,923.48
2018-02-23T03:58:17.336Z,923.48
2018-02-23T03:58:45.427Z,923.5
2018-02-23T03:59:13.544Z,923.51
2018-02-23T03:59:41.865Z,923.5
2018-02-23T04:00:10.181Z,923.54
2018-02-23T04:00:38.375Z,923.54
2018-02-23T04:01:49.656Z,923.51
2018-02-23T04:02:17.822Z,923.53
2018-02-23T04:02:46.075Z,923.55
2018-02-23T04:03:14.253Z,923.51
2018-02-23T04:03:42.280Z,923.53
2018-02-23T04:04:10.558Z,923.5
2018-02-23T04:04:38.853Z,923.49
2018-02-23T04:05:06.877Z,923.51
2018-02-23T04:05:35.199Z,923.49
2018-02-23T04:06:03.312Z,923.46
2018-02-23T04:06:31.307Z,923.46
2018-02-23T04:07:42.490Z,923.48
2018-02-23T04:08:10.661Z,923.46
2018-02-23T04:08:38.798Z,923.43
2018-02-23T04:09:06.892Z,923.45
2018-02-23T04:09:35.027Z,923.46
2018-02-23T04:10:03.302Z,923.43
2018-02-23T04:10:31.503Z,923.41
2018-02-23T04:10:59.720Z,923.4
2018-02-23T04:11:28.037Z,923.43
2018-02-23T04:11:56.350Z,923.39
2018-02-23T04:12:24.548Z,923.37
2018-02-23T04:13:35.833Z,923.4
2018-02-23T04:14:04.100Z,923.4
2018-02-23T04:14:32.337Z,923.38
2018-02-23T04:15:00.428Z,923.35
2018-02-23T04:15:28.661Z,923.38
2018-02-23T04:15:56.841Z,923.39
2018-02-23T04:16:25.034Z,923.38
2018-02-23T04:16:53.258Z,923.37
2018-02-23T04:17:21.477Z,923.4
2018-02-23T04:17:49.699Z,923.38
2018-02-23T04:18:17.796Z,923.38
2018-02-23T04:19:29.085Z,923.38
2018-02-23T04:19:57.343Z,923.36
2018-02-23T04:20:25.477Z,923.34
2018-02-23T04:20:53.663Z,923.36
2018-02-23T04:21:21.799Z,923.37
2018-02-23T04:21:49.978Z,923.38
2018-02-23T04:22:18.169Z,923.33
2018-02-23T04:22:46.292Z,923.4
2018-02-23T04:23:14.516Z,923.36
2018-02-23T04:23:42.626Z,923.34
2018-02-23T04:24:10.712Z,923.34
2018-02-23T04:25:21.999Z,923.32
2018-02-23T04:25:50.265Z,923.32
2018-02-23T04:26:18.501Z,923.33
2018-02-23T04:26:46.490Z,923.32
2018-02-23T04:27:14.419Z,923.34
2018-02-23T04:27:42.596Z,923.3
2018-02-23T04:28:10.892Z,923.34
2018-02-23T04:28:39.111Z,923.31
2018-02-23T04:29:07.324Z,923.31
2018-02-23T04:29:35.536Z,923.31
2018-02-23T04:30:03.832Z,923.29
2018-02-23T04:31:15.016Z,923.25
2018-02-23T04:31:43.179Z,923.28
2018-02-23T04:32:11.419Z,923.23
2018-02-23T04:32:39.606Z,923.29
2018-02-23T04:33:07.839Z,923.21
2018-02-23T04:33:36.110Z,923.25
2018-02-23T04:34:04.206Z,923.22
2018-02-23T04:34:32.325Z,923.23
2018-02-23T04:35:00.536Z,923.14
2018-02-23T04:35:28.548Z,923.19
2018-02-23T04:35:56.842Z,923.17
2018-02-23T04:37:08.129Z,923.2
2018-02-23T04:37:36.387Z,923.11
2018-02-23T04:38:04.428Z,923.15
2018-02-23T04:38:32.520Z,923.14
2018-02-23T04:39:00.552Z,923.17
2018-02-23T04:39:28.826Z,923.16
2018-02-23T04:39:57.115Z,923.14
2018-02-23T04:40:25.041Z,923.14
2018-02-23T04:40:53.055Z,923.13
2018-02-23T04:41:21.272Z,923.15
2018-02-23T04:41:49.570Z,923.1
2018-02-23T04:43:00.654Z,923.11
2018-02-23T04:43:28.713Z,923.16
2018-02-23T04:43:56.954Z,923.11
2018-02-23T04:44:25.045Z,923.09
2018-02-23T04:44:53.075Z,923.07
2018-02-23T04:45:21.246Z,923.07
2018-02-23T04:45:49.339Z,923.11
2018-02-23T04:46:17.460Z,923.04
2018-02-23T04:46:45.576Z,923.06
2018-02-23T04:47:13.894Z,923.07
2018-02-23T04:47:42.185Z,923.02
2018-02-23T04:48:53.469Z,923.04
2018-02-23T04:49:21.531Z,923.01
2018-02-23T04:49:49.365Z,923.03
2018-02-23T04:50:17.460Z,923.05
2018-02-23T04:50:45.593Z,923.03
2018-02-23T04:51:13.767Z,923.02
2018-02-23T04:51:41.962Z,923.03
2018-02-23T04:52:10.182Z,923
2018-02-23T04:52:38.499Z,923.05
2018-02-23T04:53:06.815Z,923.04
2018-02-23T04:53:35.117Z,923.04
2018-02-23T04:54:46.196Z,923.05
2018-02-23T04:55:14.255Z,923.02
2018-02-23T04:55:42.292Z,923.01
2018-02-23T04:56:10.481Z,923.02
2018-02-23T04:56:38.608Z,923
2018-02-23T04:57:06.583Z,923.01
2018-02-23T04:57:34.783Z,923.06
2018-02-23T04:58:02.906Z,923.03
2018-02-23T04:58:31.219Z,923.05
2018-02-23T04:58:59.433Z,923.02
2018-02-23T04:59:27.630Z,923
2018-02-23T05:00:38.815Z,922.98
2018-02-23T05:01:06.776Z,923
2018-02-23T05:01:34.811Z,922.97
2018-02-23T05:02:02.907Z,923.01
2018-02-23T05:02:31.138Z,922.96
2018-02-23T05:02:59.312Z,923.01
2018-02-23T05:03:27.506Z,922.96
2018-02-23T05:03:55.530Z,922.97
2018-02-23T05:04:23.547Z,922.94
2018-02-23T05:04:51.766Z,922.92
2018-02-23T05:05:19.855Z,922.91
2018-02-23T05:06:31.037Z,922.96
2018-02-23T05:06:59.093Z,922.95
2018-02-23T05:07:27.328Z,922.95
2018-02-23T05:07:55.417Z,922.94
2018-02-23T05:08:23.551Z,922.94
2018-02-23T05:08:51.524Z,922.95
2018-02-23T05:09:19.712Z,922.95
2018-02-23T05:09:47.832Z,922.96
2018-02-23T05:10:15.948Z,922.94
2018-02-23T05:10:44.260Z,922.99
2018-02-23T05:11:12.555Z,922.92
2018-02-23T05:12:23.640Z,922.95
2018-02-23T05:12:51.802Z,922.92
2018-02-23T05:13:19.937Z,922.91
2018-02-23T05:13:48.126Z,922.89
2018-02-23T05:14:16.260Z,922.89
2018-02-23T05:14:44.235Z,922.93
2018-02-23T05:15:12.430Z,922.91
2018-02-23T05:15:40.549Z,922.9
2018-02-23T05:16:08.667Z,922.9
2018-02-23T05:16:36.883Z,922.89
2018-02-23T05:17:04.876Z,922.91
2018-02-23T05:18:16.152Z,922.9
2018-02-23T05:18:44.313Z,922.86
2018-02-23T05:19:12.356Z,922.88
2018-02-23T05:19:40.443Z,922.86
2018-02-23T05:20:08.386Z,922.88
2018-02-23T05:20:36.550Z,922.87
2018-02-23T05:21:04.737Z,922.9
2018-02-23T05:21:32.666Z,922.9
2018-02-23T05:22:00.875Z,922.86
2018-02-23T05:22:28.993Z,922.92
2018-02-23T05:22:57.189Z,922.88
2018-02-23T05:24:08.370Z,922.92
2018-02-23T05:24:36.422Z,922.89
2018-02-23T05:25:04.659Z,922.88
2018-02-23T05:25:32.746Z,922.89
2018-02-23T05:26:00.876Z,922.86
2018-02-23T05:26:28.956Z,922.9
2018-02-23T05:26:57.237Z,922.87
2018-02-23T05:27:25.256Z,922.87
2018-02-23T05:27:53.571Z,922.88
2018-02-23T05:28:21.692Z,922.9
2018-02-23T05:28:49.979Z,922.87
2018-02-23T05:30:01.061Z,922.9
2018-02-23T05:30:29.121Z,922.89
2018-02-23T05:30:57.156Z,922.93
2018-02-23T05:31:25.145Z,922.93
2018-02-23T05:31:53.377Z,922.89
2018-02-23T05:32:21.652Z,922.92
2018-02-23T05:32:49.946Z,922.94
2018-02-23T05:33:18.069Z,922.87
2018-02-23T05:33:46.377Z,922.9
2018-02-23T05:34:14.577Z,922.87
2018-02-23T05:34:42.783Z,922.85
2018-02-23T05:35:53.873Z,922.86
2018-02-23T05:36:22.101Z,922.84
2018-02-23T05:36:50.093Z,922.84
2018-02-23T05:37:18.296Z,922.84
2018-02-23T05:37:46.376Z,922.85
2018-02-23T05:38:14.564Z,922.85
2018-02-23T05:38:42.849Z,922.84
2018-02-23T05:39:10.858Z,922.87
2018-02-23T05:39:38.886Z,922.84
2018-02-23T05:40:07.010Z,922.84
2018-02-23T05:40:35.143Z,922.82
2018-02-23T05:41:46.357Z,922.88
2018-02-23T05:42:14.585Z,922.83
2018-02-23T05:42:42.863Z,922.81
2018-02-23T05:43:11.168Z,922.88
2018-02-23T05:43:39.256Z,922.83
2018-02-23T05:44:07.511Z,922.82
2018-02-23T05:44:35.801Z,922.84
2018-02-23T05:45:04.039Z,922.79
2018-02-23T05:45:32.162Z,922.82
2018-02-23T05:46:00.377Z,922.78
2018-02-23T05:46:28.663Z,922.78
2018-02-23T05:47:39.771Z,922.8
2018-02-23T05:48:07.932Z,922.8
2018-02-23T05:48:36.096Z,922.83
2018-02-23T05:49:04.233Z,922.84
2018-02-23T05:49:32.494Z,922.82
2018-02-23T05:50:00.767Z,922.82
2018-02-23T05:50:28.926Z,922.85
2018-02-23T05:50:57.043Z,922.82
2018-02-23T05:51:25.252Z,922.85
2018-02-23T05:51:53.567Z,922.83
2018-02-23T05:52:21.758Z,922.82
2018-02-23T05:53:32.962Z,922.81
2018-02-23T05:54:01.120Z,922.8
2018-02-23T05:54:29.384Z,922.79
2018-02-23T05:54:57.622Z,922.8
2018-02-23T05:55:25.694Z,922.8
2018-02-23T05:55:53.855Z,922.75
2018-02-23T05:56:22.013Z,922.78
2018-02-23T05:56:50.032Z,922.74
2018-02-23T05:57:18.266Z,922.73
2018-02-23T05:57:46.494Z,922.73
2018-02-23T05:58:14.621Z,922.73
2018-02-23T05:59:25.834Z,922.74
2018-02-23T05:59:53.859Z,922.71
2018-02-23T06:00:22.061Z,922.71
2018-02-23T06:00:50.265Z,922.7
2018-02-23T06:01:18.345Z,922.69
2018-02-23T06:01:46.532Z,922.72
2018-02-23T06:02:14.619Z,922.74
2018-02-23T06:02:42.813Z,922.72
2018-02-23T06:03:11.043Z,922.74
2018-02-23T06:03:39.070Z,922.75
2018-02-23T06:04:07.303Z,922.76
2018-02-23T06:05:18.518Z,922.74
2018-02-23T06:05:46.836Z,922.77
2018-02-23T06:06:15.136Z,922.72
2018-02-23T06:06:43.347Z,922.76
2018-02-23T06:07:11.530Z,922.76
2018-02-23T06:07:39.815Z,922.7
2018-02-23T06:08:07.999Z,922.73
2018-02-23T06:08:36.185Z,922.72
2018-02-23T06:09:04.319Z,922.73
2018-02-23T06:09:32.548Z,922.73
2018-02-23T06:10:00.638Z,922.72
2018-02-23T06:11:11.895Z,922.75
2018-02-23T06:11:40.023Z,922.76
2018-02-23T06:12:08.221Z,922.75
2018-02-23T06:12:36.431Z,922.75
2018-02-23T06:13:04.603Z,922.78
2018-02-23T06:13:32.788Z,922.78
2018-02-23T06:14:00.873Z,922.77
2018-02-23T06:14:29.166Z,922.78
2018-02-23T06:14:57.306Z,922.78
2018-02-23T06:15:25.435Z,922.8
2018-02-23T06:15:53.671Z,922.79
2018-02-23T06:17:04.683Z,922.82
2018-02-23T06:17:32.811Z,922.8
2018-02-23T06:18:00.903Z,922.8
2018-02-23T06:18:29.114Z,922.8
2018-02-23T06:18:57.190Z,922.82
2018-02-23T06:19:25.476Z,922.82
2018-02-23T06:19:53.664Z,922.78
2018-02-23T06:20:21.858Z,922.77
2018-02-23T06:20:50.095Z,922.77
2018-02-23T06:21:18.208Z,922.8
2018-02-23T06:21:46.297Z,922.78
2018-02-23T06:22:57.449Z,922.79
2018-02-23T06:23:25.674Z,922.76
2018-02-23T06:23:53.987Z,922.78
2018-02-23T06:24:22.179Z,922.8
2018-02-23T06:24:50.154Z,922.82
2018-02-23T06:25:18.145Z,922.82
2018-02-23T06:25:46.344Z,922.82
2018-02-23T06:26:14.375Z,922.83
2018-02-23T06:26:42.592Z,922.8
2018-02-23T06:27:10.782Z,922.83
2018-02-23T06:27:38.889Z,922.83
2018-02-23T06:28:50.114Z,922.84
2018-02-23T06:29:18.277Z,922.81
2018-02-23T06:29:46.539Z,922.79
2018-02-23T06:30:14.603Z,922.8
2018-02-23T06:30:42.843Z,922.81
2018-02-23T06:31:10.893Z,922.79
2018-02-23T06:31:39.084Z,922.78
2018-02-23T06:32:07.293Z,922.83
2018-02-23T06:32:35.406Z,922.79
2018-02-23T06:33:03.688Z,922.79
2018-02-23T06:33:31.797Z,922.79
2018-02-23T06:34:43.017Z,922.8
2018-02-23T06:35:11.174Z,922.81
2018-02-23T06:35:39.432Z,922.81
2018-02-23T06:36:07.599Z,922.77
2018-02-23T06:36:35.739Z,922.86
2018-02-23T06:37:03.789Z,922.81
2018-02-23T06:37:32.076Z,922.84
2018-02-23T06:38:00.288Z,922.81
2018-02-23T06:38:28.511Z,922.85
2018-02-23T06:38:56.594Z,922.87
2018-02-23T06:39:24.902Z,922.89
2018-02-23T06:40:36.031Z,922.91
2018-02-23T06:41:04.189Z,922.88
2018-02-23T06:41:32.343Z,922.87
2018-02-23T06:42:00.408Z,922.88